Warsaw, IN (46580)

2:20 PM EDT on August 28, 2016 (GMT -0400)
15 South | | Change Station

Elev 840 ft 41.22 °N, 85.87 °W | Updated 7 minutes ago

Overcast
Overcast
89.1 °F
Feels Like 99 °F
N
1.0
Wind Variable Wind from SE
Gusts 6.0 mph

Today
High -- | Low -- °F
--% Chance of Precip.
Yesterday
High -- | Low -- °F
Precip. -- in
Pressure 30.19 in
Visibility 10.0 miles
Clouds Overcast 3000 ft
Heat Index 99 °F
Dew Point 74 °F
Humidity 62%
Rainfall 0.00 in
Snow Depth Not available.
7:06 AM 8:21 PM
Waning Crescent, 14% visible
METAR KASW 281815Z AUTO 07003KT 10SM OVC030 30/25 A3019 RMK AO2
Pressure 30.19 in
Visibility 10.0 miles
Clouds Overcast 3000 ft
Heat Index 99 °F
Dew Point 74 °F
Humidity 62%
Rainfall 0.00 in
Snow Depth Not available.
7:06 AM 8:21 PM
Waning Crescent, 14% visible
METAR KASW 281815Z AUTO 07003KT 10SM OVC030 30/25 A3019 RMK AO2

10-Day Weather Forecast

Almanac

Astronomy

Aug. 28, 2016 Rise Set
Actual Time
Civil Twilight
Nautical Twilight
Astronomical Twilight
Moon
Length of Visible Light
Length of Day
Tomorrow will be .
, % of the Moon is Illuminated

Today's Extremes

State Highs State Lows

Community

WunderPhotos

Upload Photos

1,935,644 photos uploaded!

WunderBlog® & News

Nearby

Air Quality

  Air Quality AQ Index Pollutant
Not available.

Snow Depth

Station Depth Elevation

Earthquake Activity

City Distance Mag. Time & Date
Minimum magnitude displayed is 2.5.

Coastal Water Temperatures

Place Temperature

Stations

Nearby Weather Stations

Station Location Temp. Windchill Dew Point Humidity Wind Precip. Elev Updated Type
                   

Watches & Warnings

There are currently no watches in effect.